Flight Track Log - Related Links

Times and Time Zones

All times are in EDT time to prevent confusion due to time zone crossing. See the USC110 flight status page for this flight to view local times or setup timezone preferences in your user account.

Time Position Orientation Groundspeed Altitude Reporting Facility
EDT Latitude Longitude Course Direction KTS MPH feet Rate Location/Type
Sat 09:27:17 PM 42.1333 -87.9167 194° South 119 137 1,900  Level Chicago TRACON
Sat 09:28:23 PM 42.1833 -87.9167 360° North 139 160 2,900 661 Climbing Chicago TRACON
Sat 09:29:15 PM 42.2142 -87.9106 North 137 158 3,200 637 Climbing Chicago Center
Sat 09:30:16 PM 42.2378 -87.9261 334° Northwest 129 148 4,100 732 Climbing Chicago Center
Sat 09:31:18 PM 42.2058 -87.9211 173° South 125 144 4,700 634 Climbing Chicago Center
Sat 09:32:00 PM 41.9221 -88.0638 194° South  Level Estimated
Sat 09:32:19 PM 42.1717 -87.9136 171° South 123 142 5,400  Level Chicago Center
Sat 09:33:20 PM 42.1300 -87.9022 169° South 126 145 6,000 244 Climbing Chicago Center
Sat 09:34:22 PM 42.0861 -87.8919 170° South 154 177 5,900 -49 Descending Chicago Center
Sat 09:35:23 PM 42.0433 -87.8789 167° South 157 181 5,900  Level Chicago Center
Sat 09:36:24 PM 42.0000 -87.8833 184° South 184 212 5,900  Level Chicago TRACON
Sat 09:37:24 PM 41.9667 -87.9000 200° South 181 208 5,900  Level Chicago TRACON
Sat 09:38:24 PM 41.9333 -87.9167 200° South 144 166 5,900 149 Level Chicago TRACON
Sat 09:39:25 PM 41.8833 -87.9500 206° Southwest 138 159 6,200 261 Climbing Chicago TRACON
Sat 09:40:19 PM 41.8500 -87.9500 180° South 136 157 6,400 368 Climbing Chicago TRACON
Sat 09:41:19 PM 41.8167 -87.9667 200° South 126 145 6,900 500 Climbing Chicago TRACON
Sat 09:42:19 PM 41.7833 -87.9833 200° South 122 140 7,400 448 Climbing Chicago TRACON
Sat 09:43:33 PM 41.7514 -88.0061 208° Southwest 122 140 7,900 222 Climbing Chicago Center
Sat 09:44:34 PM 41.7175 -88.0250 203° Southwest 130 150 7,900  Level Chicago Center
Sat 09:45:35 PM 41.6797 -88.0456 202° Southwest 143 165 7,900  Level Chicago Center
Sat 09:46:36 PM 41.6406 -88.0647 200° South 149 171 7,900  Level Chicago Center
Sat 09:47:38 PM 41.6022 -88.0850 202° Southwest 149 171 7,900  Level Chicago Center
Sat 09:48:39 PM 41.5553 -88.1089 201° Southwest 152 175 7,900  Level Chicago Center
Sat 09:49:40 PM 41.5158 -88.1281 200° South 153 176 7,900  Level Chicago Center
Sat 09:50:41 PM 41.4756 -88.1464 199° South 154 177 7,900  Level Chicago Center
Sat 09:51:42 PM 41.4361 -88.1664 201° Southwest 155 178 7,900  Level Chicago Center
Sat 09:52:43 PM 41.3961 -88.1864 201° Southwest 156 180 7,900  Level Chicago Center
Sat 09:53:45 PM 41.3564 -88.2031 197° South 153 176 7,900  Level Chicago Center
Sat 09:54:46 PM 41.3072 -88.2244 198° South 156 180 7,900  Level Chicago Center
Sat 09:55:47 PM 41.2658 -88.2431 199° South 157 181 7,900  Level Chicago Center
Sat 09:56:48 PM 41.2250 -88.2611 198° South 157 181 7,900  Level Chicago Center
Sat 09:57:49 PM 41.1844 -88.2794 199° South 155 178 7,900  Level Chicago Center
Sat 09:58:50 PM 41.1450 -88.2975 199° South 153 176 7,900  Level Chicago Center
Sat 09:59:51 PM 41.1047 -88.3144 198° South 152 175 7,900  Level Chicago Center
Sat 10:00:52 PM 41.0642 -88.3328 199° South 154 177 7,900  Level Chicago Center
Sat 10:01:53 PM 41.0242 -88.3511 199° South 154 177 7,900 49 Level Chicago Center
Sat 10:02:54 PM 40.9761 -88.3725 199° South 153 176 8,000 49 Climbing Chicago Center
Sat 10:03:55 PM 40.9361 -88.3906 199° South 153 176 8,000  Level Chicago Center
Sat 10:04:56 PM 40.8964 -88.4100 200° South 153 176 8,000  Level Chicago Center
Sat 10:05:57 PM 40.8586 -88.4264 198° South 147 169 8,000  Level Chicago Center
Sat 10:06:58 PM 40.8192 -88.4447 199° South 150 173 8,000  Level Chicago Center
Sat 10:07:59 PM 40.7814 -88.4614 198° South 147 169 8,000  Level Chicago Center
Sat 10:09:00 PM 40.7433 -88.4786 199° South 146 168 8,000  Level Chicago Center
Sat 10:10:01 PM 40.7042 -88.4967 199° South 148 170 8,000  Level Chicago Center
Sat 10:11:02 PM 40.6597 -88.5153 198° South 151 174 8,000  Level Chicago Center
Sat 10:12:03 PM 40.6242 -88.5303 198° South 151 174 8,000 -49 Level Chicago Center
Sat 10:13:04 PM 40.5792 -88.5525 201° Southwest 146 168 7,900 -49 Descending Chicago Center
Sat 10:14:05 PM 40.5389 -88.5683 197° South 150 173 7,900  Level Chicago Center
Sat 10:15:06 PM 40.4986 -88.5850 197° South 152 175 7,900  Level Chicago Center
Sat 10:16:07 PM 40.4614 -88.6022 199° South 151 174 7,900  Level Chicago Center
Sat 10:17:08 PM 40.4214 -88.6194 198° South 151 174 7,900 -49 Level Chicago Center
Sat 10:18:09 PM 40.3817 -88.6367 198° South 151 174 7,800 -787 Descending Chicago Center
Sat 10:19:10 PM 40.3364 -88.6578 200° South 163 188 6,300 -1,377 Descending Chicago Center
Sat 10:20:11 PM 40.2928 -88.6833 204° Southwest 170 196 5,000 -1,131 Descending Chicago Center
Sat 10:21:12 PM 40.2642 -88.7200 224° Southwest 149 171 4,000 -541 Descending Chicago Center
Sat 10:22:13 PM 40.2311 -88.7497 214° Southwest 144 166 3,900 -49 Descending Chicago Center
Sat 10:23:14 PM 40.1942 -88.7867 217° Southwest 142 163 3,900  Level Chicago Center
Sat 10:24:15 PM 40.1650 -88.8153 217° Southwest 138 159 3,900  Level Chicago Center
Sat 10:25:16 PM 40.1369 -88.8436 218° Southwest 133 153 3,900  Level Chicago Center
Sat 10:26:17 PM 40.1067 -88.8742 218° Southwest 134 154 3,900  Level Chicago Center
Sat 10:27:18 PM 40.0767 -88.9033 217° Southwest 134 154 3,900  Level Chicago Center
Sat 10:28:19 PM 40.0467 -88.9342 218° Southwest 135 155 3,900  Level Chicago Center
Sat 10:29:20 PM 40.0183 -88.9633 218° Southwest 133 153 3,900  Level Chicago Center
Sat 10:30:21 PM 39.9892 -88.9906 216° Southwest 131 151 3,900  Level Chicago Center
Sat 10:31:22 PM 39.9592 -89.0200 217° Southwest 132 152 3,900  Level Chicago Center
Sat 10:32:23 PM 39.9311 -89.0489 218° Southwest 131 151 3,900  Level Chicago Center
Sat 10:33:24 PM 39.9028 -89.0761 216° Southwest 129 148 3,900  Level Chicago Center
Sat 10:34:25 PM 39.8747 -89.1042 218° Southwest 128 147 3,900 49 Level Chicago Center
Sat 10:35:27 PM 39.8583 -89.1439 242° Southwest 150 173 4,000  Climbing Chicago Center
Sat 10:36:27 PM 39.8608 -89.1853 275° West 130 150 3,900 -49 Descending Chicago Center
Sat 10:37:30 PM 39.8583 -89.2342 266° West 129 148 3,900  Level Kansas City Center
Sat 10:38:27 PM 39.8564 -89.2814 267° West 131 151 3,900  Level Kansas City Center
Sat 10:39:28 PM 39.8447 -89.3264 251° West 132 152 3,900  Level Kansas City Center
Sat 10:40:31 PM 39.8253 -89.3761 243° Southwest 131 151 3,900  Level Kansas City Center
Sat 10:41:32 PM 39.8100 -89.4150 243° Southwest 127 146 3,900  Level Kansas City Center
Sat 10:42:33 PM 39.7939 -89.4550 242° Southwest 125 144 3,900 50 Level Kansas City Center
Sat 10:43:31 PM 39.7781 -89.4969 244° Southwest 126 145 4,000 50 Climbing Kansas City Center
Sat 10:44:32 PM 39.7639 -89.5350 244° Southwest 123 142 4,000 -50 Level Kansas City Center
Sat 10:45:31 PM 39.7517 -89.5706 246° West 118 136 3,900 -49 Descending Kansas City Center
Sat 10:46:35 PM 39.7378 -89.6086 245° Southwest 115 132 3,900  Level Kansas City Center
Sat 10:47:35 PM 39.7225 -89.6458 242° Southwest 116 133 3,900 50 Level Kansas City Center
Sat 10:48:34 PM 39.7078 -89.6833 243° Southwest 117 135 4,000 50 Climbing Kansas City Center
Sat 10:49:35 PM 39.6739 -89.7061 207° Southwest 134 154 4,000 -49 Level Kansas City Center
Sat 10:50:37 PM 39.6469 -89.7372 222° Southwest 131 151 3,900 -49 Descending Kansas City Center
Sat 10:51:38 PM 39.6169 -89.7669 217° Southwest 133 153 3,900 50 Level Kansas City Center
Sat 10:52:36 PM 39.5869 -89.7947 216° Southwest 135 155 4,000  Climbing Kansas City Center
Sat 10:53:38 PM 39.5575 -89.8242 218° Southwest 133 153 3,900 -49 Descending Kansas City Center
Sat 10:54:39 PM 39.5297 -89.8522 218° Southwest 129 148 3,900  Level Kansas City Center
Sat 10:55:40 PM 39.5006 -89.8775 214° Southwest 127 146 3,900  Level Kansas City Center
Sat 10:56:38 PM 39.4719 -89.9050 217° Southwest 128 147 3,900 100 Level Kansas City Center
Sat 10:57:40 PM 39.4436 -89.9328 217° Southwest 127 146 4,100 48 Climbing Kansas City Center
Sat 10:58:42 PM 39.4139 -89.9594 215° Southwest 128 147 4,000 -49 Descending Kansas City Center
Sat 10:59:42 PM 39.3844 -89.9878 217° Southwest 131 151 4,000  Level Kansas City Center
Sat 11:00:40 PM 39.3556 -90.0161 217° Southwest 131 151 4,000  Level Kansas City Center
Sat 11:01:40 PM 39.3181 -90.0481 213° Southwest 134 154 4,000  Level Kansas City Center
Sat 11:02:44 PM 39.2881 -90.0731 213° Southwest 130 150 4,000  Level Kansas City Center
Sat 11:03:41 PM 39.2569 -90.1028 216° Southwest 136 157 4,000  Level Kansas City Center
Sat 11:04:43 PM 39.2272 -90.1328 218° Southwest 137 158 4,000 50 Level Kansas City Center
Sat 11:05:42 PM 39.1983 -90.1572 213° Southwest 127 146 4,100  Climbing Kansas City Center
Sat 11:06:46 PM 39.1722 -90.1844 219° Southwest 123 142 4,000 -48 Descending Kansas City Center
Sat 11:07:46 PM 39.1442 -90.2103 216° Southwest 123 142 4,000  Level Kansas City Center
Sat 11:08:47 PM 39.1169 -90.2369 217° Southwest 124 143 4,000 50 Level Kansas City Center
Sat 11:09:45 PM 39.0867 -90.2625 213° Southwest 128 147 4,100  Climbing Kansas City Center
Sat 11:10:47 PM 39.0581 -90.2897 216° Southwest 128 147 4,000 -50 Descending Kansas City Center
Sat 11:11:45 PM 39.0283 -90.3178 216° Southwest 130 150 4,000 50 Level Kansas City Center
Sat 11:12:47 PM 38.9975 -90.3467 216° Southwest 133 153 4,100 49 Climbing Kansas City Center
Sat 11:13:47 PM 38.9653 -90.3753 215° Southwest 137 158 4,100 -49 Level Kansas City Center
Sat 11:14:49 PM 38.9342 -90.4036 215° Southwest 138 159 4,000 -634 Descending Kansas City Center
Sat 11:15:50 PM 38.8986 -90.4386 217° Southwest 157 181 2,800 -800 Descending Kansas City Center
Sat 11:16:49 PM 38.8594 -90.4722 214° Southwest 170 196 2,400 -202 Descending Kansas City Center
Sat 11:17:49 PM 38.8236 -90.5053 216° Southwest 165 190 2,400  Level Kansas City Center
Sat 11:18:51 PM 38.7883 -90.5381 216° Southwest 161 185 2,400  Level Kansas City Center
Sat 11:19:52 PM 38.7336 -90.5525 192° South 169 194 2,400 -99 Level Kansas City Center
Sat 11:20:52 PM 38.6922 -90.5775 205° Southwest 174 200 2,200 -763 Descending Kansas City Center
Sat 11:21:50 PM 38.6639 -90.6225 231° Southwest 168 193 900 -850 Descending Kansas City Center
Sat 11:22:52 PM 38.6561 -90.6586 255° West 147 169 500 -387 Descending Kansas City Center
Sat 11:24:00 PM 38.6500 -90.6500 North  Level FlightAware Approximate
Sat 11:31:00 PM 38.6621 -90.6521 North  Level Estimated

Login

Don't have an account? Register now (free) for customized features, flight alerts, and more!